Mlawa, Poland
Current Conditions -  °F | °C
As of 5:30 PM on Sunday 21 Dec 2014 (Local Time) from EPMO Reporting Station
Broken Clouds Broken Clouds  
Wind Chill: 31°   Ceiling: 4300
Heat Index: 39°   Visibility: 6mi
Dew Point: 34°   Wind: 15mph
Humidity: 81%   Direction: 260°W
Pressure: 30"   Gusts: NA
Location:  53.12°N, 20.36°E
Report Text: EPMO 211530Z 26013KT 9999 SCT026 BKN043 04/01 Q1016
Loading
Personal Weather Stations






























Interactive Weather Map New forecast layout! Learn more

10-Day Weather Forecast

Advertisements
Track Severe Weather on mobile